Afratakhteh, Iran

12:08 PM +0430 on May 30, 2017 (GMT +0430)
Gonbad Ghabus | | Change Station

Elev 108 ft 37.24 °N, 55.09 °E | Updated 38 minutes ago

Clear
Clear
88 °F
Feels Like 86 °F
N
5
Wind Variable Wind from South

Today
High -- | Low -- °F
--% Chance of Precip.
Yesterday
High -- | Low -- °F
Precip. -- in
Pressure 29.95 in
Visibility -9999.0 miles
Clouds
Heat Index 86 °F
Dew Point 55 °F
Humidity 33%
Rainfall 0.00 in
Snow Depth Not available.
5:33 AM 8:02 PM
Waxing Crescent, 27% visible
METAR OINK 300700Z 18004KT CAVOK 31/13 Q1014
Pressure 29.95 in
Visibility -9999.0 miles
Clouds
Heat Index 86 °F
Dew Point 55 °F
Humidity 33%
Rainfall 0.00 in
Snow Depth Not available.
5:33 AM 8:02 PM
Waxing Crescent, 27% visible
METAR OINK 300700Z 18004KT CAVOK 31/13 Q1014

Get Severe Weather Alerts

Thanks for signing up!

Be on the lookout for a verification email in your inbox.

You'll start receiving the daily forecast at 6 AM.

×

10-Day Weather Forecast

No radar image for this location.
×

Almanac

Astronomy

May. 30, 2017 Rise Set
Actual Time
Civil Twilight
Nautical Twilight
Astronomical Twilight
Moon
Length of Visible Light
Length of Day
Tomorrow will be .
, % of the Moon is Illuminated

Today's Extremes

Country Highs Country Lows

Community

WunderPhotos

Category 6

Welcome to Category 6. This is the collective home for Weather Underground's featured writeups by Dr. Jeff Masters (right), Bob Henson (left), Chris Burt, and other regular contributors.

Nearby

Air Quality

  Air Quality AQ Index Pollutant
Not available.

Snow Depth

Station Depth Elevation

Earthquake Activity

City Distance Mag. Time & Date
Minimum magnitude displayed is 2.5.

Coastal Water Temperatures

Place Temperature

Stations

Nearby Weather Stations

Station Location Temp. Windchill Dew Point Humidity Wind Precip. Elev Updated Type